Terminal Aerodrome Forecast
Issued by NWS

Home | Current Version | Previous Version | Text Only | Print | Product List | Glossary On
Versions: 1 2 3 4 5 6 7 8 9 10 11 12 13 14 15 16 17 18 19 20 21 22 23 24 25 26 27 28 29 30 31 32 33 34 35 36
000
FTUS45 KGJT 200031 AAA
TAFEGE
TAF AMD
KEGE 200031Z 2001/2024 00000KT P6SM VCSH OVC070
     FM200115 23004KT 3SM -SN BR OVC020
      TEMPO 2002/2005 1SM -SN BR SCT008 BKN015
     FM200500 22004KT 3SM -SHSN OVC020
     FM201500 23007KT P6SM VCSH OVC015
     FM201800 23008KT P6SM VCSH SCT035 BKN060
      AMD LTD TO CLD VIS AND WIND 2005/2013=

USA.gov is the U.S. government's official web portal to all federal, state and local government web resources and services.